createdAt,value
2019-02-27T00:01:05.556Z,21.75
2019-02-27T00:03:35.041Z,21.45
2019-02-27T00:06:10.176Z,20.12
2019-02-27T00:08:38.221Z,21.12
2019-02-27T00:11:06.223Z,20.45
2019-02-27T00:13:34.337Z,23.30
2019-02-27T00:16:04.056Z,20.72
2019-02-27T00:18:32.203Z,20.08
2019-02-27T00:21:00.105Z,19.85
2019-02-27T00:23:27.780Z,20.30
2019-02-27T00:25:55.788Z,20.80
2019-02-27T00:28:23.980Z,21.25
2019-02-27T00:30:52.495Z,22.55
2019-02-27T00:33:25.236Z,19.32
2019-02-27T00:35:49.821Z,20.05
2019-02-27T00:38:17.598Z,21.33
2019-02-27T00:40:46.629Z,20.02
2019-02-27T00:43:14.573Z,20.72
2019-02-27T00:45:42.491Z,19.57
2019-02-27T00:48:10.247Z,17.77
2019-02-27T00:50:43.845Z,18.60
2019-02-27T00:53:12.977Z,16.10
2019-02-27T00:55:40.774Z,17.07
2019-02-27T00:58:08.729Z,17.42
2019-02-27T01:00:38.886Z,15.53
2019-02-27T01:03:06.582Z,16.97
2019-02-27T01:05:34.281Z,16.10
2019-02-27T01:08:05.326Z,15.43
2019-02-27T01:10:33.094Z,15.90
2019-02-27T01:13:00.818Z,16.93
2019-02-27T01:15:28.731Z,15.75
2019-02-27T01:17:57.548Z,16.90
2019-02-27T01:20:27.720Z,16.85
2019-02-27T01:22:55.553Z,16.50
2019-02-27T01:25:23.910Z,15.65
2019-02-27T01:27:52.185Z,16.27
2019-02-27T01:30:24.348Z,15.83
2019-02-27T01:32:53.115Z,15.10
2019-02-27T01:35:21.044Z,14.75
2019-02-27T01:37:49.032Z,14.07
2019-02-27T01:40:18.524Z,15.80
2019-02-27T01:42:47.259Z,15.72
2019-02-27T01:45:20.635Z,14.60
2019-02-27T01:47:45.683Z,15.55
2019-02-27T01:50:36.858Z,14.65
2019-02-27T01:53:07.405Z,14.83
2019-02-27T01:55:38.819Z,16.05
2019-02-27T01:58:09.148Z,15.80
2019-02-27T02:00:37.923Z,14.35
2019-02-27T02:03:05.789Z,13.62
2019-02-27T02:05:35.957Z,14.68
2019-02-27T02:08:06.630Z,12.73
2019-02-27T02:10:34.496Z,13.28
2019-02-27T02:13:15.843Z,13.18
2019-02-27T02:16:41.522Z,14.43
2019-02-27T02:19:41.705Z,12.85
2019-02-27T02:22:33.431Z,13.08
2019-02-27T02:25:35.821Z,11.80
2019-02-27T02:28:40.122Z,11.12
2019-02-27T02:31:41.236Z,13.55
2019-02-27T02:34:48.071Z,12.53
2019-02-27T02:37:48.249Z,13.25
2019-02-27T02:41:13.034Z,12.07
2019-02-27T02:44:21.043Z,12.43
2019-02-27T02:47:19.498Z,12.80
2019-02-27T02:50:26.766Z,15.05
2019-02-27T02:54:00.404Z,12.25
2019-02-27T02:56:40.691Z,12.60
2019-02-27T02:59:50.355Z,15.93
2019-02-27T03:02:33.795Z,17.30
2019-02-27T03:05:29.103Z,20.48
2019-02-27T03:08:02.982Z,18.90
2019-02-27T03:11:00.131Z,16.95
2019-02-27T03:14:16.934Z,18.25
2019-02-27T03:17:19.236Z,17.17
2019-02-27T03:20:28.123Z,14.95
2019-02-27T03:23:33.257Z,17.45
2019-02-27T03:26:16.802Z,17.37
2019-02-27T03:29:53.492Z,19.57
2019-02-27T03:32:41.189Z,19.95
2019-02-27T03:35:55.126Z,18.60
2019-02-27T03:38:44.622Z,18.98
2019-02-27T03:41:39.790Z,17.30
2019-02-27T03:44:43.205Z,17.73
2019-02-27T03:47:20.803Z,16.17
2019-02-27T03:50:14.549Z,18.07
2019-02-27T03:53:15.058Z,16.90
2019-02-27T03:56:14.920Z,16.17
2019-02-27T03:59:19.110Z,14.85
2019-02-27T04:02:30.319Z,15.32
2019-02-27T04:05:15.416Z,15.55
2019-02-27T04:08:15.791Z,16.07
2019-02-27T04:10:43.486Z,16.30
2019-02-27T04:13:11.423Z,14.85
2019-02-27T04:15:39.754Z,15.45
2019-02-27T04:18:06.327Z,20.60
2019-02-27T04:20:35.933Z,18.87
2019-02-27T04:23:03.615Z,17.82
2019-02-27T04:25:32.272Z,18.85
2019-02-27T04:28:00.291Z,18.80
2019-02-27T04:30:27.986Z,21.12
2019-02-27T04:32:55.683Z,20.92
2019-02-27T04:35:23.477Z,21.07
2019-02-27T04:37:53.910Z,20.97
2019-02-27T04:40:21.628Z,24.45
2019-02-27T04:42:49.535Z,21.10
2019-02-27T04:45:17.727Z,24.02
2019-02-27T04:47:45.671Z,22.52
2019-02-27T04:50:14.708Z,27.10
2019-02-27T04:52:42.712Z,24.25
2019-02-27T04:55:13.063Z,26.25
2019-02-27T04:57:41.643Z,30.37
2019-02-27T05:00:09.606Z,37.30
2019-02-27T05:02:37.306Z,41.37
2019-02-27T05:05:08.454Z,42.20
2019-02-27T05:07:35.904Z,46.28
2019-02-27T05:10:06.887Z,29.95
2019-02-27T05:12:34.158Z,31.02
2019-02-27T05:15:04.212Z,29.63
2019-02-27T05:17:32.763Z,28.70
2019-02-27T05:20:00.579Z,29.63
2019-02-27T05:22:28.522Z,34.13
2019-02-27T05:24:56.299Z,31.42
2019-02-27T05:27:27.419Z,31.68
2019-02-27T05:29:55.301Z,26.95
2019-02-27T05:32:25.293Z,26.00
2019-02-27T05:34:53.211Z,26.95
2019-02-27T05:37:23.101Z,29.20
2019-02-27T05:39:51.716Z,26.62
2019-02-27T05:42:20.036Z,22.22
2019-02-27T05:44:49.145Z,20.10
2019-02-27T05:47:16.852Z,18.00
2019-02-27T05:49:44.913Z,17.40
2019-02-27T05:52:14.432Z,16.42
2019-02-27T05:54:42.647Z,14.23
2019-02-27T05:57:10.511Z,16.02
2019-02-27T05:59:38.367Z,13.80
2019-02-27T06:02:10.550Z,14.35
2019-02-27T06:04:36.188Z,13.50
2019-02-27T06:07:06.047Z,14.90
2019-02-27T06:09:33.925Z,15.48
2019-02-27T06:12:06.531Z,13.35
2019-02-27T06:14:32.530Z,13.18
2019-02-27T06:17:01.728Z,14.45
2019-02-27T06:19:30.659Z,14.15
2019-02-27T06:21:59.848Z,15.88
2019-02-27T06:24:28.323Z,15.93
2019-02-27T06:26:56.574Z,15.13
2019-02-27T06:29:24.594Z,15.05
2019-02-27T06:31:53.338Z,15.78
2019-02-27T06:34:22.286Z,14.35
2019-02-27T06:36:51.901Z,15.03
2019-02-27T06:39:28.228Z,15.38
2019-02-27T06:41:56.254Z,18.15
2019-02-27T06:44:24.101Z,17.00
2019-02-27T06:46:53.902Z,18.85
2019-02-27T06:49:21.847Z,18.27
2019-02-27T06:51:49.781Z,17.95
2019-02-27T06:54:18.455Z,17.75
2019-02-27T06:56:46.778Z,16.35
2019-02-27T06:59:15.083Z,18.75
2019-02-27T07:01:45.062Z,18.55
2019-02-27T07:04:12.873Z,17.82
2019-02-27T07:06:41.045Z,19.27
2019-02-27T07:09:11.366Z,16.95
2019-02-27T07:11:38.490Z,20.70
2019-02-27T07:14:06.200Z,17.80
2019-02-27T07:16:37.511Z,18.62
2019-02-27T07:19:05.266Z,17.70
2019-02-27T07:21:33.617Z,19.32
2019-02-27T07:24:01.678Z,19.60
2019-02-27T07:26:37.456Z,20.40
2019-02-27T07:29:05.386Z,20.25
2019-02-27T07:31:33.304Z,19.32
2019-02-27T07:34:01.155Z,18.07
2019-02-27T07:36:31.451Z,18.48
2019-02-27T07:38:59.321Z,17.07
2019-02-27T07:41:27.268Z,17.10
2019-02-27T07:43:55.018Z,18.52
2019-02-27T07:46:23.363Z,18.42
2019-02-27T07:48:51.497Z,19.35
2019-02-27T07:51:20.818Z,18.87
2019-02-27T07:53:51.416Z,17.10
2019-02-27T07:56:19.665Z,17.50
2019-02-27T07:58:47.376Z,16.93
2019-02-27T08:01:16.186Z,17.87
2019-02-27T08:03:47.954Z,17.60
2019-02-27T08:06:16.036Z,17.95
2019-02-27T08:08:44.497Z,18.62
2019-02-27T08:11:13.660Z,16.48
2019-02-27T08:13:42.160Z,18.55
2019-02-27T08:16:11.218Z,17.30
2019-02-27T08:18:39.551Z,18.12
2019-02-27T08:21:07.413Z,18.30
2019-02-27T08:23:35.230Z,19.05
2019-02-27T08:26:07.122Z,18.90
2019-02-27T08:28:35.030Z,19.60
2019-02-27T08:31:02.959Z,21.55
2019-02-27T08:33:30.721Z,20.92
2019-02-27T08:35:59.957Z,19.73
2019-02-27T08:38:27.726Z,18.55
2019-02-27T08:40:58.939Z,17.17
2019-02-27T08:43:30.365Z,16.10
2019-02-27T08:46:02.169Z,15.45
2019-02-27T08:48:29.033Z,16.55
2019-02-27T08:50:56.976Z,17.80
2019-02-27T08:53:26.878Z,18.82
2019-02-27T08:55:57.069Z,17.52
2019-02-27T08:58:26.751Z,20.02
2019-02-27T09:00:55.117Z,17.50
2019-02-27T09:03:24.110Z,17.20
2019-02-27T09:05:53.703Z,15.68
2019-02-27T09:08:22.627Z,16.75
2019-02-27T09:10:51.755Z,15.75
2019-02-27T09:13:19.550Z,17.25
2019-02-27T09:15:50.776Z,16.23
2019-02-27T09:18:18.456Z,16.27
2019-02-27T09:20:46.492Z,15.78
2019-02-27T09:23:14.383Z,16.75
2019-02-27T09:25:42.436Z,15.95
2019-02-27T09:28:10.107Z,17.07
2019-02-27T09:30:38.547Z,16.85
2019-02-27T09:33:07.109Z,16.07
2019-02-27T09:35:38.515Z,19.07
2019-02-27T09:38:04.389Z,15.78
2019-02-27T09:40:32.274Z,17.32
2019-02-27T09:43:00.185Z,17.52
2019-02-27T09:45:29.514Z,17.65
2019-02-27T09:47:59.893Z,16.62
2019-02-27T09:50:52.832Z,14.65
2019-02-27T09:53:20.698Z,15.03
2019-02-27T09:55:53.491Z,14.90
2019-02-27T09:58:18.477Z,15.03
2019-02-27T10:00:49.140Z,15.00
2019-02-27T10:03:20.466Z,14.25
2019-02-27T10:05:47.814Z,14.33
2019-02-27T10:08:15.692Z,14.55
2019-02-27T10:10:45.807Z,15.05
2019-02-27T10:13:14.431Z,13.90
2019-02-27T10:15:42.532Z,13.03
2019-02-27T10:18:10.809Z,12.80
2019-02-27T10:20:38.625Z,14.70
2019-02-27T10:23:06.693Z,15.03
2019-02-27T10:25:34.876Z,13.35
2019-02-27T10:28:04.813Z,12.55
2019-02-27T10:30:33.179Z,14.43
2019-02-27T10:33:03.398Z,12.45
2019-02-27T10:35:32.162Z,12.80
2019-02-27T10:37:59.903Z,15.13
2019-02-27T10:40:30.738Z,12.70
2019-02-27T10:42:58.523Z,12.53
2019-02-27T10:45:27.566Z,18.15
2019-02-27T10:47:55.485Z,14.45
2019-02-27T10:50:23.740Z,13.83
2019-02-27T10:52:52.774Z,16.17
2019-02-27T10:55:20.811Z,13.15
2019-02-27T10:57:50.742Z,14.33
2019-02-27T11:00:24.887Z,17.40
2019-02-27T11:02:52.483Z,15.53
2019-02-27T11:05:21.088Z,16.10
2019-02-27T11:07:54.794Z,14.10
2019-02-27T11:10:23.368Z,16.07
2019-02-27T11:12:51.377Z,14.07
2019-02-27T11:15:19.498Z,15.30
2019-02-27T11:17:47.601Z,14.60
2019-02-27T11:20:20.445Z,15.10
2019-02-27T11:22:45.342Z,15.93
2019-02-27T11:25:15.438Z,15.00
2019-02-27T11:27:44.197Z,14.50
2019-02-27T11:30:14.997Z,15.30
2019-02-27T11:32:43.320Z,15.08
2019-02-27T11:35:11.768Z,14.58
2019-02-27T11:37:40.398Z,16.67
2019-02-27T11:40:10.121Z,14.75
2019-02-27T11:42:39.205Z,13.90
2019-02-27T11:45:07.892Z,14.70
2019-02-27T11:47:35.594Z,16.35
2019-02-27T11:50:04.450Z,14.85
2019-02-27T11:52:33.645Z,14.63
2019-02-27T11:55:01.454Z,15.13
2019-02-27T11:57:31.265Z,15.40
2019-02-27T11:59:59.210Z,13.93
2019-02-27T12:02:29.754Z,15.23
2019-02-27T12:04:57.108Z,15.75
2019-02-27T12:07:24.858Z,14.80
2019-02-27T12:09:52.517Z,15.50
2019-02-27T12:12:22.504Z,14.05
2019-02-27T12:14:50.427Z,15.30
2019-02-27T12:17:18.490Z,16.97
2019-02-27T12:19:46.254Z,16.77
2019-02-27T12:22:14.167Z,16.97
2019-02-27T12:24:41.941Z,18.60
2019-02-27T12:27:25.708Z,15.90
2019-02-27T12:29:40.301Z,17.27
2019-02-27T12:32:08.046Z,15.95
2019-02-27T12:34:37.210Z,13.75
2019-02-27T12:37:05.920Z,15.45
2019-02-27T12:39:33.629Z,14.23
2019-02-27T12:42:04.147Z,15.30
2019-02-27T12:44:34.470Z,15.15
2019-02-27T12:47:05.488Z,15.00
2019-02-27T12:49:32.461Z,14.38
2019-02-27T12:52:01.142Z,15.80
2019-02-27T12:54:30.020Z,17.80
2019-02-27T12:56:57.758Z,16.82
2019-02-27T12:59:25.580Z,19.57
2019-02-27T13:01:53.540Z,17.35
2019-02-27T13:04:21.305Z,16.70
2019-02-27T13:06:49.308Z,16.30
2019-02-27T13:09:20.497Z,17.23
2019-02-27T13:11:48.283Z,16.75
2019-02-27T13:14:15.970Z,17.75
2019-02-27T13:16:46.389Z,17.60
2019-02-27T13:19:13.549Z,18.17
2019-02-27T13:21:41.294Z,20.60
2019-02-27T13:24:09.252Z,24.12
2019-02-27T13:26:37.387Z,27.22
2019-02-27T13:29:05.324Z,27.35
2019-02-27T13:31:33.925Z,26.65
2019-02-27T13:34:01.914Z,27.05
2019-02-27T13:36:31.586Z,26.70
2019-02-27T13:39:00.561Z,25.85
2019-02-27T13:41:28.403Z,27.87
2019-02-27T13:43:58.173Z,27.52
2019-02-27T13:46:25.758Z,26.85
2019-02-27T13:48:53.555Z,29.20
2019-02-27T13:51:21.494Z,28.47
2019-02-27T13:53:49.175Z,25.70
2019-02-27T13:56:17.238Z,19.62
2019-02-27T13:58:45.064Z,19.30
2019-02-27T14:01:16.322Z,17.65
2019-02-27T14:03:45.668Z,17.20
2019-02-27T14:06:13.946Z,19.20
2019-02-27T14:08:43.813Z,20.10
2019-02-27T14:11:11.729Z,19.82
2019-02-27T14:13:43.979Z,22.60
2019-02-27T14:16:11.060Z,23.92
2019-02-27T14:18:39.547Z,26.25
2019-02-27T14:21:07.888Z,23.87
2019-02-27T14:23:35.644Z,22.90
2019-02-27T14:26:06.706Z,25.08
2019-02-27T14:28:33.415Z,19.48
2019-02-27T14:31:01.322Z,23.15
2019-02-27T14:33:29.169Z,26.40
2019-02-27T14:35:57.761Z,24.95
2019-02-27T14:38:25.685Z,25.52
2019-02-27T14:40:53.561Z,25.88
2019-02-27T14:43:21.218Z,24.98
2019-02-27T14:45:50.732Z,18.40
2019-02-27T14:48:21.495Z,17.25
2019-02-27T14:50:51.690Z,14.87
2019-02-27T14:53:19.913Z,17.40
2019-02-27T14:55:47.724Z,17.00
2019-02-27T14:58:15.426Z,16.50
2019-02-27T15:00:43.562Z,17.20
2019-02-27T15:03:11.720Z,17.23
2019-02-27T15:05:42.879Z,15.72
2019-02-27T15:08:09.304Z,17.85
2019-02-27T15:10:40.173Z,16.40
2019-02-27T15:13:10.098Z,16.73
2019-02-27T15:15:38.049Z,15.68
2019-02-27T15:18:05.833Z,15.05
2019-02-27T15:20:34.625Z,15.60
2019-02-27T15:23:04.891Z,15.63
2019-02-27T15:25:32.872Z,15.60
2019-02-27T15:28:01.951Z,16.27
2019-02-27T15:30:29.854Z,15.38
2019-02-27T15:33:03.580Z,16.40
2019-02-27T15:35:28.708Z,15.78
2019-02-27T15:37:56.699Z,16.42
2019-02-27T15:40:28.632Z,20.50
2019-02-27T15:42:58.106Z,16.67
2019-02-27T15:45:27.881Z,16.82
2019-02-27T15:47:58.547Z,16.75
2019-02-27T15:50:26.813Z,16.00
2019-02-27T15:52:54.966Z,16.02
2019-02-27T15:55:22.719Z,16.80
2019-02-27T15:57:53.522Z,16.37
2019-02-27T16:00:21.922Z,19.02
2019-02-27T16:02:50.076Z,20.52
2019-02-27T16:05:18.174Z,19.45
2019-02-27T16:07:49.435Z,16.90
2019-02-27T16:10:18.507Z,25.95
2019-02-27T16:12:46.624Z,26.02
2019-02-27T16:15:16.936Z,25.88
2019-02-27T16:17:45.927Z,29.10
2019-02-27T16:20:16.185Z,28.62
2019-02-27T16:22:48.713Z,27.93
2019-02-27T16:25:20.014Z,29.40
2019-02-27T16:27:48.156Z,28.05
2019-02-27T16:30:18.652Z,28.75
2019-02-27T16:32:48.714Z,26.70
2019-02-27T16:35:16.377Z,27.17
2019-02-27T16:37:44.482Z,29.25
2019-02-27T16:40:17.614Z,30.35
2019-02-27T16:42:44.202Z,29.80
2019-02-27T16:45:14.924Z,31.12
2019-02-27T16:47:42.761Z,31.10
2019-02-27T16:50:15.516Z,32.48
2019-02-27T16:52:43.338Z,32.73
2019-02-27T16:55:13.392Z,34.43
2019-02-27T16:57:41.552Z,31.75
2019-02-27T17:00:11.076Z,33.08
2019-02-27T17:02:39.409Z,37.42
2019-02-27T17:05:08.856Z,46.28
2019-02-27T17:07:37.713Z,40.83
2019-02-27T17:10:08.521Z,48.92
2019-02-27T17:12:43.046Z,46.20
2019-02-27T17:15:11.001Z,55.38
2019-02-27T17:17:39.686Z,46.35
2019-02-27T17:20:12.489Z,63.78
2019-02-27T17:22:39.510Z,49.13
2019-02-27T17:25:08.786Z,45.70
2019-02-27T17:27:36.889Z,53.20
2019-02-27T17:30:08.607Z,54.70
2019-02-27T17:32:36.766Z,71.70
2019-02-27T17:35:04.930Z,78.97
2019-02-27T17:37:34.012Z,74.72
2019-02-27T17:40:02.248Z,85.38
2019-02-27T17:42:31.975Z,86.45
2019-02-27T17:44:59.725Z,76.60
2019-02-27T17:47:30.244Z,82.92
2019-02-27T17:49:58.311Z,77.12
2019-02-27T17:52:26.197Z,64.07
2019-02-27T17:54:54.650Z,58.13
2019-02-27T17:57:25.187Z,59.58
2019-02-27T17:59:53.931Z,60.15
2019-02-27T18:02:21.771Z,55.12
2019-02-27T18:04:53.044Z,54.38
2019-02-27T18:07:19.140Z,57.48
2019-02-27T18:09:46.935Z,70.80
2019-02-27T18:12:15.635Z,95.28
2019-02-27T18:14:46.674Z,150.40
2019-02-27T18:17:16.769Z,159.27
2019-02-27T18:19:47.418Z,110.78
2019-02-27T18:22:15.388Z,68.97
2019-02-27T18:24:43.210Z,72.32
2019-02-27T18:27:13.156Z,51.88
2019-02-27T18:29:41.229Z,49.03
2019-02-27T18:32:10.881Z,50.08
2019-02-27T18:34:38.866Z,45.98
2019-02-27T18:37:06.552Z,43.08
2019-02-27T18:39:36.546Z,34.33
2019-02-27T18:42:06.595Z,32.93
2019-02-27T18:44:34.672Z,32.90
2019-02-27T18:47:03.072Z,32.48
2019-02-27T18:49:32.586Z,32.45
2019-02-27T18:52:00.474Z,34.45
2019-02-27T18:54:28.196Z,35.90
2019-02-27T18:56:56.210Z,29.95
2019-02-27T18:59:23.965Z,35.13
2019-02-27T19:01:51.942Z,36.28
2019-02-27T19:04:19.793Z,38.73
2019-02-27T19:06:48.840Z,45.83
2019-02-27T19:09:16.781Z,44.18
2019-02-27T19:11:51.564Z,52.65
2019-02-27T19:14:19.879Z,49.38
2019-02-27T19:16:47.565Z,44.25
2019-02-27T19:19:15.530Z,40.83
2019-02-27T19:21:43.351Z,51.58
2019-02-27T19:24:14.516Z,58.70
2019-02-27T19:26:44.376Z,71.35
2019-02-27T19:29:13.048Z,80.77
2019-02-27T19:31:40.754Z,80.97
2019-02-27T19:34:10.236Z,74.70
2019-02-27T19:36:39.380Z,67.58
2019-02-27T19:39:10.478Z,64.82
2019-02-27T19:41:40.374Z,66.97
2019-02-27T19:44:08.198Z,67.30
2019-02-27T19:46:35.959Z,71.57
2019-02-27T19:49:04.237Z,70.87
2019-02-27T19:51:34.050Z,71.30
2019-02-27T19:54:02.020Z,73.85
2019-02-27T19:56:32.263Z,69.27
2019-02-27T19:58:59.964Z,69.53
2019-02-27T20:01:28.114Z,66.62
2019-02-27T20:03:56.049Z,61.15
2019-02-27T20:06:27.954Z,58.20
2019-02-27T20:08:55.273Z,58.02
2019-02-27T20:11:23.155Z,54.83
2019-02-27T20:13:51.507Z,51.48
2019-02-27T20:16:20.708Z,48.40
2019-02-27T20:18:54.834Z,48.45
2019-02-27T20:21:20.514Z,52.70
2019-02-27T20:23:48.783Z,44.40
2019-02-27T20:26:19.979Z,44.35
2019-02-27T20:28:49.199Z,37.30
2019-02-27T20:31:20.806Z,39.63
2019-02-27T20:33:47.695Z,37.08
2019-02-27T20:36:15.894Z,35.98
2019-02-27T20:38:44.164Z,38.55
2019-02-27T20:41:12.846Z,38.28
2019-02-27T20:43:40.747Z,29.98
2019-02-27T20:46:10.353Z,34.27
2019-02-27T20:48:39.730Z,32.45
2019-02-27T20:51:08.105Z,34.15
2019-02-27T20:53:36.346Z,28.65
2019-02-27T20:56:04.520Z,32.58
2019-02-27T20:58:32.451Z,27.30
2019-02-27T21:01:00.289Z,27.48
2019-02-27T21:03:28.513Z,24.50
2019-02-27T21:05:56.413Z,22.22
2019-02-27T21:08:24.565Z,21.35
2019-02-27T21:10:55.272Z,18.60
2019-02-27T21:13:22.450Z,17.70
2019-02-27T21:15:51.445Z,15.63
2019-02-27T21:18:19.872Z,15.05
2019-02-27T21:20:50.970Z,24.55
2019-02-27T21:23:23.298Z,14.18
2019-02-27T21:25:51.120Z,15.43
2019-02-27T21:28:21.285Z,14.43
2019-02-27T21:30:51.840Z,13.50
2019-02-27T21:33:18.468Z,11.73
2019-02-27T21:35:46.355Z,10.45
2019-02-27T21:38:16.692Z,10.08
2019-02-27T21:40:53.269Z,10.30
2019-02-27T21:43:25.264Z,8.40
2019-02-27T21:45:51.297Z,10.18
2019-02-27T21:48:19.111Z,10.93
2019-02-27T21:50:48.287Z,10.38
2019-02-27T21:53:16.620Z,9.15
2019-02-27T21:55:45.495Z,8.55
2019-02-27T21:58:20.470Z,8.33
2019-02-27T22:00:48.188Z,9.38
2019-02-27T22:03:15.500Z,9.15
2019-02-27T22:05:44.657Z,8.68
2019-02-27T22:08:12.884Z,9.23
2019-02-27T22:10:41.140Z,7.95
2019-02-27T22:13:10.877Z,8.90
2019-02-27T22:15:40.510Z,6.62
2019-02-27T22:18:11.817Z,7.15
2019-02-27T22:20:39.116Z,8.05
2019-02-27T22:23:08.995Z,7.85
2019-02-27T22:25:37.325Z,8.75
2019-02-27T22:28:06.042Z,7.78
2019-02-27T22:30:34.098Z,7.22
2019-02-27T22:33:03.364Z,7.92
2019-02-27T22:35:37.337Z,7.95
2019-02-27T22:38:01.982Z,8.60
2019-02-27T22:40:30.250Z,7.80
2019-02-27T22:42:57.962Z,7.97
2019-02-27T22:45:26.377Z,9.93
2019-02-27T22:47:54.771Z,8.70
2019-02-27T22:50:22.955Z,11.10
2019-02-27T22:52:54.745Z,10.65
2019-02-27T22:55:23.568Z,11.00
2019-02-27T22:57:54.880Z,10.75
2019-02-27T23:01:01.088Z,11.05
2019-02-27T23:03:34.699Z,10.43
2019-02-27T23:06:03.059Z,9.80
2019-02-27T23:08:31.091Z,11.95
2019-02-27T23:11:02.830Z,10.82
2019-02-27T23:13:30.350Z,8.48
2019-02-27T23:15:59.122Z,10.10
2019-02-27T23:18:27.249Z,9.75
2019-02-27T23:20:56.069Z,10.08
2019-02-27T23:23:24.593Z,9.98
2019-02-27T23:25:52.858Z,10.05
2019-02-27T23:28:21.971Z,9.68
2019-02-27T23:30:50.638Z,9.55
2019-02-27T23:33:20.160Z,10.32
2019-02-27T23:35:50.214Z,14.68
2019-02-27T23:38:18.720Z,9.65
2019-02-27T23:40:49.153Z,10.80
2019-02-27T23:43:16.572Z,10.80
2019-02-27T23:45:45.208Z,10.60
2019-02-27T23:48:14.249Z,8.85
2019-02-27T23:50:43.568Z,9.25
2019-02-27T23:53:11.651Z,10.88
2019-02-27T23:55:44.220Z,11.12
2019-02-27T23:58:10.642Z,8.98
